Time;durP1;ratioP1;P1;durP2;ratioP2;P2;SDS_P1;SDS_P2;PMS_P1;PMS_P2;Temp;Humidity;BMP_temperature;BMP_pressure;BME280_temperature;BME280_humidity;BME280_pressure;Samples;Min_cycle;Max_cycle;Signal;HPM_P1;HPM_P2
2023/11/13 00:00:38;;;;;;;;;0.00;0.00;;;;;14.11;100.00;100732.97;5057356;28;63275;-80
2023/11/13 00:03:04;;;;;;;;;0.00;0.00;;;;;14.10;100.00;100746.09;5058305;28;45413;-80
2023/11/13 00:05:29;;;;;;;;;0.00;0.00;;;;;14.10;100.00;100746.94;5058204;28;45516;-80
2023/11/13 00:07:56;;;;;;;;;0.00;0.00;;;;;14.09;100.00;100731.31;5056523;28;45490;-79
2023/11/13 00:10:21;;;;;;;;;0.00;0.00;;;;;14.08;100.00;100735.69;5058115;28;45427;-80
2023/11/13 00:12:47;;;;;;;;;0.00;0.00;;;;;14.10;100.00;100728.63;5058106;28;45503;-80
2023/11/13 00:15:13;;;;;;;;;0.00;0.00;;;;;14.11;100.00;100708.53;5056186;28;59918;-80
2023/11/13 00:17:38;;;;;;;;;3.00;3.00;;;;;14.10;100.00;100691.13;5057867;28;45428;-80
2023/11/13 00:20:05;;;;;;;;;0.00;0.00;;;;;14.07;100.00;100715.66;5056667;28;45397;-80
2023/11/13 00:22:31;;;;;;;;;0.00;0.00;;;;;14.04;100.00;100713.19;5057551;28;45385;-80
2023/11/13 00:24:58;;;;;;;;;0.00;0.00;;;;;14.06;100.00;100720.97;5039963;28;45276;-80
2023/11/13 00:27:23;;;;;;;;;0.00;0.00;;;;;14.07;100.00;100717.44;5057525;28;46890;-80
2023/11/13 00:29:49;;;;;;;;;0.00;0.00;;;;;14.10;100.00;100709.47;5056862;28;45282;-80
2023/11/13 00:32:14;;;;;;;;;0.00;0.00;;;;;14.07;100.00;100697.34;5056962;28;69708;-80
2023/11/13 00:34:39;;;;;;;;;0.00;0.00;;;;;14.09;100.00;100702.50;5056961;28;61278;-80
2023/11/13 00:37:05;;;;;;;;;0.00;0.00;;;;;14.10;100.00;100702.44;5057079;28;46029;-79
2023/11/13 00:39:32;;;;;;;;;0.00;0.00;;;;;14.08;100.00;100711.31;5055434;28;67298;-80
2023/11/13 00:41:57;;;;;;;;;0.00;0.00;;;;;14.03;100.00;100721.13;5057453;28;45365;-80
2023/11/13 00:44:23;;;;;;;;;0.00;0.00;;;;;13.92;100.00;100722.41;5056301;28;45577;-79
2023/11/13 00:46:49;;;;;;;;;0.00;0.00;;;;;13.87;100.00;100728.75;5056570;28;69645;-80
2023/11/13 00:49:14;;;;;;;;;0.00;0.00;;;;;13.67;100.00;100735.69;5057286;28;45409;-80
2023/11/13 00:51:39;;;;;;;;;0.00;0.00;;;;;13.63;100.00;100710.59;5057619;28;45435;-80
2023/11/13 00:54:05;;;;;;;;;6.00;6.00;;;;;13.54;100.00;100698.75;5056259;28;70471;-79
2023/11/13 00:56:30;;;;;;;;;0.00;0.00;;;;;13.48;100.00;100695.53;5057208;28;46135;-79
2023/11/13 00:58:55;;;;;;;;;0.00;0.00;;;;;13.44;100.00;100694.81;5055086;28;73276;-79
2023/11/13 01:01:21;;;;;;;;;0.00;0.00;;;;;13.43;100.00;100697.47;5055786;28;45236;-79
2023/11/13 01:03:47;;;;;;;;;0.00;0.00;;;;;13.42;100.00;100680.09;5038887;28;45400;-79
2023/11/13 01:06:16;;;;;;;;;0.00;0.00;;;;;13.44;100.00;100676.50;5055924;28;46383;-79
2023/11/13 01:08:42;;;;;;;;;0.00;0.00;;;;;13.42;100.00;100683.56;5057181;28;45377;-79
2023/11/13 01:11:11;;;;;;;;;0.00;0.00;;;;;13.43;100.00;100680.03;5057083;28;45369;-79
2023/11/13 01:13:36;;;;;;;;;0.00;0.00;;;;;13.45;100.00;100678.22;5055775;28;45394;-79
2023/11/13 01:16:02;;;;;;;;;0.00;0.00;;;;;13.47;100.00;100665.06;5056935;28;46326;-79
2023/11/13 01:18:28;;;;;;;;;0.00;0.00;;;;;13.48;100.00;100658.91;5056583;28;45397;-78
2023/11/13 01:20:53;;;;;;;;;0.00;0.00;;;;;13.47;100.00;100647.63;5056263;28;45298;-79
2023/11/13 01:23:19;;;;;;;;;0.00;0.00;;;;;13.48;100.00;100641.50;5056553;28;59542;-78
2023/11/13 01:25:45;;;;;;;;;0.00;0.00;;;;;13.50;100.00;100607.41;5056510;28;46983;-78
2023/11/13 01:28:10;;;;;;;;;0.00;0.00;;;;;13.50;100.00;100610.88;5056332;28;69861;-79
2023/11/13 01:30:35;;;;;;;;;0.00;0.00;;;;;13.50;100.00;100623.09;5055262;28;45385;-79
2023/11/13 01:33:01;;;;;;;;;0.00;0.00;;;;;13.48;100.00;100641.50;5054347;28;70360;-79
2023/11/13 01:35:26;;;;;;;;;0.00;0.00;;;;;13.51;100.00;100643.94;5056622;28;46951;-79
2023/11/13 01:37:51;;;;;;;;;0.00;0.00;;;;;13.49;100.00;100634.47;5056593;28;45764;-79
2023/11/13 01:40:17;;;;;;;;;0.00;0.00;;;;;13.51;100.00;100640.50;5055948;28;66850;-79
2023/11/13 01:42:42;;;;;;;;;0.00;0.00;;;;;13.50;100.00;100644.88;5055553;28;45364;-78
2023/11/13 01:45:08;;;;;;;;;0.00;0.00;;;;;13.51;100.00;100635.25;5056446;28;46227;-79
2023/11/13 01:47:34;;;;;;;;;0.00;0.00;;;;;13.52;100.00;100619.50;5054929;28;45489;-78
2023/11/13 01:49:59;;;;;;;;;0.00;0.00;;;;;13.53;100.00;100612.50;5055344;28;45425;-78
2023/11/13 01:52:30;;;;;;;;;0.00;0.00;;;;;13.56;100.00;100617.63;5055685;28;69096;-79
2023/11/13 01:54:56;;;;;;;;;0.00;0.00;;;;;13.57;100.00;100616.69;5052255;28;45803;-79
2023/11/13 01:57:22;;;;;;;;;0.00;0.00;;;;;13.59;100.00;100625.31;5055316;28;45376;-79
2023/11/13 01:59:47;;;;;;;;;0.00;0.00;;;;;13.59;100.00;100637.53;5054211;28;69343;-79
2023/11/13 02:02:13;;;;;;;;;0.00;0.00;;;;;13.60;100.00;100632.25;5056121;28;45381;-79
2023/11/13 02:04:39;;;;;;;;;0.00;0.00;;;;;13.61;100.00;100617.41;5055047;28;47411;-79
2023/11/13 02:07:04;;;;;;;;;0.00;0.00;;;;;13.58;100.00;100625.38;5055438;28;45461;-79
2023/11/13 02:09:30;;;;;;;;;0.00;0.00;;;;;13.57;100.00;100634.16;5055710;28;57179;-79
2023/11/13 02:11:56;;;;;;;;;0.00;0.00;;;;;13.53;100.00;100617.75;5055158;28;45369;-79
2023/11/13 02:14:21;;;;;;;;;0.00;0.00;;;;;13.53;100.00;100589.81;5055205;28;45673;-79
2023/11/13 02:16:47;;;;;;;;;0.00;0.00;;;;;13.50;100.00;100574.28;5056008;28;45376;-79
2023/11/13 02:19:16;;;;;;;;;0.00;0.00;;;;;16.36;100.00;100590.81;5055866;28;56080;-80
2023/11/13 02:21:41;;;;;;;;;0.00;0.00;;;;;16.05;100.00;100599.53;5054853;28;45581;-80
2023/11/13 02:24:07;;;;;;;;;0.00;0.00;;;;;15.92;100.00;100612.47;5055693;28;75688;-79
2023/11/13 02:26:32;;;;;;;;;0.00;0.00;;;;;15.91;100.00;100596.78;5054870;28;45536;-79
2023/11/13 02:28:58;;;;;;;;;0.00;0.00;;;;;15.89;100.00;100585.53;5055040;28;45358;-79
2023/11/13 02:31:23;;;;;;;;;0.00;0.00;;;;;15.87;100.00;100583.81;5055566;28;45475;-79
2023/11/13 02:33:49;;;;;;;;;0.00;0.00;;;;;16.20;100.00;100589.97;5055633;28;53371;-80
2023/11/13 02:36:14;;;;;;;;;0.00;0.00;;;;;15.71;100.00;100579.44;5055894;28;45361;-79
2023/11/13 02:38:39;;;;;;;;;0.00;0.00;;;;;15.68;100.00;100562.94;5054962;28;68348;-79
2023/11/13 02:41:05;;;;;;;;;0.00;0.00;;;;;15.73;100.00;100560.06;5054798;28;68877;-78
2023/11/13 02:43:30;;;;;;;;;0.00;0.00;;;;;15.78;100.00;100542.31;5054827;28;69565;-77
2023/11/13 02:45:55;;;;;;;;;0.00;0.00;;;;;15.84;100.00;100509.63;5054271;28;73452;-78
2023/11/13 02:48:21;;;;;;;;;0.00;0.00;;;;;15.80;100.00;100524.69;5054606;28;45323;-78
2023/11/13 02:50:46;;;;;;;;;0.00;0.00;;;;;16.68;100.00;100537.34;5055995;28;45532;-79
2023/11/13 02:53:12;;;;;;;;;0.00;0.00;;;;;16.31;100.00;100540.31;5056794;28;45352;-79
2023/11/13 02:55:37;;;;;;;;;0.00;0.00;;;;;15.90;100.00;100532.94;5057870;28;45377;-78
2023/11/13 02:58:02;;;;;;;;;0.00;0.00;;;;;15.84;100.00;100528.88;5058247;28;69629;-79
2023/11/13 03:00:28;;;;;;;;;0.00;0.00;;;;;15.79;100.00;100540.56;5057959;28;70359;-79
2023/11/13 03:02:53;;;;;;;;;0.00;0.00;;;;;15.90;100.00;100538.19;5058954;28;47168;-78
2023/11/13 03:05:19;;;;;;;;;0.00;0.00;;;;;15.86;100.00;100529.66;5058639;28;58774;-79
2023/11/13 03:07:44;;;;;;;;;0.00;0.00;;;;;15.92;100.00;100531.09;5057821;28;45373;-79
2023/11/13 03:10:10;;;;;;;;;0.00;0.00;;;;;16.48;100.00;100526.22;5057109;28;64093;-79
2023/11/13 03:12:37;;;;;;;;;0.00;0.00;;;;;16.99;100.00;100510.16;5059003;28;46388;-79
2023/11/13 03:15:03;;;;;;;;;0.00;0.00;;;;;16.21;100.00;100513.72;5057493;28;45363;-79
2023/11/13 03:17:29;;;;;;;;;0.00;0.00;;;;;16.04;100.00;100519.88;5057693;28;45426;-80
2023/11/13 03:19:55;;;;;;;;;0.00;0.00;;;;;16.02;100.00;100523.53;5058808;28;45347;-80
2023/11/13 03:22:20;;;;;;;;;0.00;0.00;;;;;16.02;100.00;100524.38;5057761;28;74441;-80
2023/11/13 03:24:46;;;;;;;;;0.00;0.00;;;;;16.13;100.00;100515.09;5058136;28;57161;-79
2023/11/13 03:27:12;;;;;;;;;0.00;0.00;;;;;16.16;100.00;100507.88;5075916;28;45361;-79
2023/11/13 03:29:38;;;;;;;;;0.00;0.00;;;;;16.23;100.00;100482.97;5077302;27;45330;-80
2023/11/13 03:32:03;;;;;;;;;0.00;0.00;;;;;16.23;100.00;100474.22;5078909;27;46665;-79
2023/11/13 03:34:29;;;;;;;;;0.00;0.00;;;;;16.26;100.00;100485.41;5078944;27;45236;-79
2023/11/13 03:36:55;;;;;;;;;0.00;0.00;;;;;16.24;100.00;100468.06;5079020;27;45296;-79
2023/11/13 03:39:20;;;;;;;;;0.00;0.00;;;;;16.29;100.00;100447.63;5078641;27;45779;-79
2023/11/13 03:41:45;;;;;;;;;0.00;0.00;;;;;16.33;100.00;100456.19;5078580;27;46299;-80
2023/11/13 03:44:11;;;;;;;;;0.00;0.00;;;;;16.32;100.00;100457.09;5077382;28;71092;-80
2023/11/13 03:46:37;;;;;;;;;0.00;0.00;;;;;16.38;100.00;100457.63;5077524;28;45299;-79
2023/11/13 03:49:03;;;;;;;;;0.00;0.00;;;;;16.39;100.00;100458.44;5078707;28;45279;-79
2023/11/13 03:51:29;;;;;;;;;0.00;0.00;;;;;16.58;100.00;100461.69;5077308;28;46270;-79
2023/11/13 03:53:54;;;;;;;;;0.00;0.00;;;;;16.50;100.00;100453.41;5094148;27;45505;-78
2023/11/13 03:56:20;;;;;;;;;0.00;0.00;;;;;16.51;100.00;100455.13;5077763;28;69283;-79
2023/11/13 03:58:46;;;;;;;;;0.00;0.00;;;;;16.54;100.00;100443.56;5077010;27;45372;-79
2023/11/13 04:01:12;;;;;;;;;0.00;0.00;;;;;16.52;100.00;100437.56;5077052;28;46194;-80
2023/11/13 04:03:37;;;;;;;;;0.00;0.00;;;;;17.09;100.00;100434.22;5060352;28;45327;-79
2023/11/13 04:06:03;;;;;;;;;0.00;0.00;;;;;16.95;100.00;100427.16;5077622;28;45302;-79
2023/11/13 04:08:29;;;;;;;;;0.00;0.00;;;;;17.01;100.00;100422.38;5077138;28;45309;-80
2023/11/13 04:10:54;;;;;;;;;0.00;0.00;;;;;17.05;100.00;100430.94;5078366;27;45991;-79
2023/11/13 04:13:20;;;;;;;;;0.00;0.00;;;;;17.03;100.00;100440.66;5078001;28;45342;-79
2023/11/13 04:15:45;;;;;;;;;0.00;0.00;;;;;17.10;100.00;100420.13;5077101;28;45349;-80
2023/11/13 04:18:10;;;;;;;;;0.00;0.00;;;;;17.09;100.00;100415.81;5076970;28;45361;-80
2023/11/13 04:20:36;;;;;;;;;0.00;0.00;;;;;17.08;100.00;100425.47;5077056;28;76534;-79
2023/11/13 04:23:02;;;;;;;;;0.00;0.00;;;;;17.03;100.00;100417.88;5076692;28;45422;-79
2023/11/13 04:25:27;;;;;;;;;0.00;0.00;;;;;17.03;100.00;100422.25;5078061;27;45413;-81
2023/11/13 04:27:52;;;;;;;;;0.00;0.00;;;;;17.10;100.00;100407.81;5076934;27;69983;-80
2023/11/13 04:30:18;;;;;;;;;0.00;0.00;;;;;17.19;100.00;100406.41;5059481;28;47167;-80
2023/11/13 04:32:44;;;;;;;;;0.00;0.00;;;;;17.18;100.00;100405.56;5078033;28;45496;-80
2023/11/13 04:35:09;;;;;;;;;0.00;0.00;;;;;17.26;100.00;100412.16;5077121;28;45430;-80
2023/11/13 04:37:35;;;;;;;;;0.00;0.00;;;;;17.24;100.00;100395.63;5077499;27;55045;-80
2023/11/13 04:40:00;;;;;;;;;0.00;0.00;;;;;17.26;100.00;100391.09;5077878;27;45427;-80
2023/11/13 04:42:26;;;;;;;;;0.00;0.00;;;;;17.34;100.00;100391.44;5075021;28;72289;-80
2023/11/13 04:44:51;;;;;;;;;0.00;0.00;;;;;17.36;100.00;100381.69;5077793;27;45310;-80
2023/11/13 04:47:17;;;;;;;;;0.00;0.00;;;;;17.43;100.00;100361.94;5075770;27;67140;-79
2023/11/13 04:49:42;;;;;;;;;0.00;0.00;;;;;17.42;100.00;100399.69;5077403;27;46890;-80
2023/11/13 04:52:07;;;;;;;;;0.00;0.00;;;;;17.44;100.00;100392.56;5076453;28;45204;-80
2023/11/13 04:54:33;;;;;;;;;0.00;0.00;;;;;17.48;100.00;100395.88;5076835;27;67290;-80
2023/11/13 04:56:59;;;;;;;;;0.00;0.00;;;;;17.55;100.00;100397.13;5075201;27;70212;-80
2023/11/13 04:59:24;;;;;;;;;0.00;0.00;;;;;17.51;100.00;100406.16;5077406;27;45548;-80
2023/11/13 05:01:50;;;;;;;;;0.00;0.00;;;;;17.57;100.00;100401.38;5076218;28;45311;-80
2023/11/13 05:04:16;;;;;;;;;0.00;0.00;;;;;17.54;100.00;100400.72;5077684;27;45365;-80
2023/11/13 05:06:43;;;;;;;;;0.00;0.00;;;;;17.63;100.00;100378.25;5076164;28;45366;-80
2023/11/13 05:09:08;;;;;;;;;0.00;0.00;;;;;17.69;100.00;100386.59;5077318;27;47118;-80
2023/11/13 05:11:34;;;;;;;;;0.00;0.00;;;;;17.69;100.00;100364.69;5077089;27;45359;-80
2023/11/13 05:13:59;;;;;;;;;0.00;0.00;;;;;17.71;100.00;100363.63;5076342;28;45373;-80
2023/11/13 05:16:26;;;;;;;;;0.00;0.00;;;;;17.78;100.00;100354.41;5076618;27;69887;-79
2023/11/13 05:18:51;;;;;;;;;0.00;0.00;;;;;17.80;100.00;100347.25;5075815;28;45437;-80
2023/11/13 05:21:18;;;;;;;;;0.00;0.00;;;;;17.77;100.00;100347.47;5077294;27;45391;-80
2023/11/13 05:23:43;;;;;;;;;0.00;0.00;;;;;17.78;100.00;100358.81;5076207;27;45369;-80
2023/11/13 05:26:09;;;;;;;;;1.50;0.00;;;;;17.81;100.00;100355.97;5067127;27;45716;-80
2023/11/13 05:28:34;;;;;;;;;0.00;0.00;;;;;17.84;100.00;100363.69;5072230;27;55320;-81
2023/11/13 05:31:00;;;;;;;;;0.00;0.00;;;;;17.87;100.00;100363.53;5056074;28;45384;-80
2023/11/13 05:33:26;;;;;;;;;0.00;0.00;;;;;17.86;100.00;100376.78;5057107;28;45369;-80
2023/11/13 05:35:52;;;;;;;;;0.00;0.00;;;;;17.93;100.00;100368.38;5055628;28;45423;-79
2023/11/13 05:38:17;;;;;;;;;4.00;4.00;;;;;17.99;100.00;100367.97;5054507;28;75399;-80
2023/11/13 05:40:43;;;;;;;;;0.00;0.00;;;;;18.00;100.00;100358.31;5055578;28;61388;-80
2023/11/13 05:43:09;;;;;;;;;3.00;3.00;;;;;17.96;100.00;100365.56;5072196;27;45430;-80
2023/11/13 05:45:34;;;;;;;;;0.00;0.00;;;;;18.04;100.00;100372.94;5055442;28;45486;-80
2023/11/13 05:48:00;;;;;;;;;0.00;0.00;;;;;18.07;100.00;100378.03;5056447;28;46546;-80
2023/11/13 05:50:26;;;;;;;;;0.75;0.00;;;;;18.11;100.00;100389.19;5056494;28;45492;-80
2023/11/13 05:52:51;;;;;;;;;0.00;0.00;;;;;18.12;100.00;100396.13;5056589;28;45396;-80
2023/11/13 05:55:16;;;;;;;;;0.00;0.00;;;;;18.16;100.00;100389.72;5055218;28;70006;-80
2023/11/13 05:57:43;;;;;;;;;0.00;0.00;;;;;18.16;100.00;100387.09;5054848;28;46346;-81
2023/11/13 06:00:11;;;;;;;;;0.00;0.00;;;;;18.16;100.00;100390.59;5056330;28;45339;-80
2023/11/13 06:02:37;;;;;;;;;0.00;0.00;;;;;18.18;100.00;100383.41;5056424;28;45298;-80
2023/11/13 06:05:02;;;;;;;;;0.00;0.00;;;;;18.26;100.00;100382.06;5056479;28;45372;-80
2023/11/13 06:07:28;;;;;;;;;0.00;0.00;;;;;18.23;100.00;100385.72;5056042;28;47543;-80
2023/11/13 06:09:53;;;;;;;;;0.00;0.00;;;;;18.24;100.00;100383.94;5055698;28;45506;-80
2023/11/13 06:12:19;;;;;;;;;0.00;0.00;;;;;18.23;100.00;100372.56;5054282;28;65814;-80
2023/11/13 06:14:45;;;;;;;;;0.00;0.00;;;;;18.23;100.00;100372.56;5054834;28;45503;-80
2023/11/13 06:17:11;;;;;;;;;0.00;0.00;;;;;18.28;100.00;100359.09;5054548;28;52053;-80
2023/11/13 06:19:36;;;;;;;;;0.00;0.00;;;;;18.31;100.00;100348.34;5056063;28;45334;-80
2023/11/13 06:22:02;;;;;;;;;0.00;0.00;;;;;18.33;100.00;100334.13;5054866;28;45347;-80
2023/11/13 06:24:27;;;;;;;;;0.00;0.00;;;;;18.38;100.00;100329.38;5055805;28;45278;-80
2023/11/13 06:26:53;;;;;;;;;0.00;0.00;;;;;18.43;100.00;100326.44;5069431;28;74500;-80
2023/11/13 06:29:19;;;;;;;;;0.00;0.00;;;;;19.18;100.00;100316.88;5074138;28;45491;-80
2023/11/13 06:31:44;;;;;;;;;0.00;0.00;;;;;19.30;100.00;100327.41;5074782;27;64264;-80
2023/11/13 06:34:11;;;;;;;;;0.00;0.00;;;;;19.36;100.00;100323.47;5075362;27;70159;-80
2023/11/13 06:36:41;;;;;;;;;0.00;0.00;;;;;18.56;100.00;100329.06;5075930;27;47086;-80
2023/11/13 06:39:06;;;;;;;;;0.00;0.00;;;;;18.54;100.00;100329.16;5075667;27;45520;-81
2023/11/13 06:41:32;;;;;;;;;0.00;0.00;;;;;18.56;100.00;100340.44;5074907;28;45425;-81
2023/11/13 06:44:02;;;;;;;;;0.00;0.00;;;;;18.55;100.00;100346.69;5075342;27;59650;-82
2023/11/13 06:46:27;;;;;;;;;0.00;0.00;;;;;18.52;100.00;100351.31;5058510;28;48204;-80
2023/11/13 06:48:53;;;;;;;;;0.00;0.00;;;;;18.50;100.00;100353.22;5074670;28;45358;-81
2023/11/13 06:51:19;;;;;;;;;0.00;0.00;;;;;18.56;100.00;100358.06;5073206;28;68860;-80
2023/11/13 06:53:44;;;;;;;;;0.00;0.00;;;;;18.57;100.00;100350.06;5074327;28;45362;-82
2023/11/13 06:56:09;;;;;;;;;0.00;0.00;;;;;18.62;100.00;100362.06;5057309;28;48114;-82
2023/11/13 06:58:36;;;;;;;;;0.00;0.00;;;;;18.65;100.00;100354.81;5074794;27;45435;-81
2023/11/13 07:01:02;;;;;;;;;0.00;0.00;;;;;18.68;100.00;100356.38;5075993;27;45402;-82
2023/11/13 07:03:28;;;;;;;;;0.00;0.00;;;;;18.60;100.00;100364.81;5076792;27;45404;-82
2023/11/13 07:05:53;;;;;;;;;0.00;0.00;;;;;18.66;100.00;100358.28;5074481;28;45445;-82
2023/11/13 07:08:19;;;;;;;;;0.00;0.00;;;;;18.68;100.00;100361.63;5076679;27;45432;-82
2023/11/13 07:10:44;;;;;;;;;0.00;0.00;;;;;18.76;100.00;100354.06;5096024;27;45348;-81
2023/11/13 07:13:13;;;;;;;;;0.00;0.00;;;;;18.75;100.00;100341.81;5095019;27;45337;-81
2023/11/13 07:15:39;;;;;;;;;0.00;0.00;;;;;18.74;100.00;100343.63;5094706;27;47132;-81
2023/11/13 07:18:05;;;;;;;;;0.00;0.00;;;;;18.77;100.00;100339.91;5094683;27;45428;-80
2023/11/13 07:20:32;;;;;;;;;0.00;0.00;;;;;18.68;100.00;100356.38;5096109;27;45415;-81
2023/11/13 07:22:57;;;;;;;;;0.00;0.00;;;;;18.64;100.00;100344.34;5095656;27;45617;-78
2023/11/13 07:25:22;;;;;;;;;0.00;0.00;;;;;18.58;100.00;100348.25;5088057;27;75364;-78
2023/11/13 07:27:48;;;;;;;;;0.00;0.00;;;;;18.48;100.00;100344.53;5054053;28;73111;-79
2023/11/13 07:30:13;;;;;;;;;0.00;0.00;;;;;18.44;100.00;100349.19;5054841;28;45282;-78
2023/11/13 07:32:39;;;;;;;;;0.00;0.00;;;;;18.40;100.00;100350.34;5053791;28;45692;-79
2023/11/13 07:35:05;;;;;;;;;0.00;0.00;;;;;18.37;100.00;100353.22;5059914;27;46268;-78
2023/11/13 07:37:33;;;;;;;;;0.00;0.00;;;;;18.28;100.00;100344.13;5072934;28;45358;-81
2023/11/13 07:39:59;;;;;;;;;0.00;0.00;;;;;18.21;100.00;100342.84;5076046;28;45316;-80
2023/11/13 07:42:25;;;;;;;;;0.00;0.00;;;;;18.29;100.00;100350.22;5078763;27;45356;-80
2023/11/13 07:44:51;;;;;;;;;0.00;0.00;;;;;18.40;100.00;100344.25;5078470;27;46418;-79
2023/11/13 07:47:17;;;;;;;;;0.00;0.00;;;;;18.34;100.00;100369.22;5078551;28;45337;-80
2023/11/13 07:49:43;;;;;;;;;0.00;0.00;;;;;18.39;100.00;100364.50;5077290;28;45326;-79
2023/11/13 07:52:10;;;;;;;;;0.00;0.00;;;;;18.40;100.00;100367.94;5078740;27;45262;-80
2023/11/13 07:54:35;;;;;;;;;0.00;0.00;;;;;18.43;100.00;100365.97;5078550;27;46662;-80
2023/11/13 07:57:01;;;;;;;;;0.00;0.00;;;;;18.40;100.00;100357.41;5077625;27;70199;-79
2023/11/13 07:59:26;;;;;;;;;0.00;0.00;;;;;18.34;100.00;100356.88;5077650;28;69266;-79
2023/11/13 08:01:52;;;;;;;;;0.00;0.00;;;;;18.36;100.00;100365.50;5077101;28;45548;-79
2023/11/13 08:04:17;;;;;;;;;0.00;0.00;;;;;18.43;100.00;100354.59;5077717;28;60491;-79
2023/11/13 08:06:44;;;;;;;;;0.00;0.00;;;;;18.37;100.00;100355.84;5077326;27;69406;-80
2023/11/13 08:09:09;;;;;;;;;0.00;0.00;;;;;18.27;100.00;100350.31;5077213;28;45338;-81
2023/11/13 08:11:35;;;;;;;;;0.00;0.00;;;;;18.30;100.00;100341.41;5077765;28;58990;-81
2023/11/13 08:14:02;;;;;;;;;0.00;0.00;;;;;18.34;100.00;100330.53;5076929;27;45792;-80
2023/11/13 08:16:27;;;;;;;;;0.00;0.00;;;;;18.40;100.00;100338.97;5078404;27;45396;-80
2023/11/13 08:18:52;;;;;;;;;0.00;0.00;;;;;18.42;100.00;100334.44;5075581;28;68279;-80
2023/11/13 08:21:18;;;;;;;;;0.00;0.00;;;;;18.49;100.00;100338.34;5078167;28;45537;-80
2023/11/13 08:23:43;;;;;;;;;0.00;0.00;;;;;18.48;100.00;100344.53;5076926;28;46073;-79
2023/11/13 08:26:09;;;;;;;;;0.00;0.00;;;;;18.44;100.00;100337.81;5076790;28;45354;-80
2023/11/13 08:28:35;;;;;;;;;0.00;0.00;;;;;18.49;100.00;100338.34;5078139;27;45314;-79
2023/11/13 08:31:00;;;;;;;;;0.00;0.00;;;;;18.51;100.00;100326.72;5078038;27;45231;-79
2023/11/13 08:33:26;;;;;;;;;0.00;0.00;;;;;18.51;100.00;100331.19;5077491;27;45308;-80
2023/11/13 08:35:51;;;;;;;;;0.00;0.00;;;;;18.53;100.00;100329.28;5076730;28;45382;-79
2023/11/13 08:38:17;;;;;;;;;6.75;6.75;;;;;18.47;100.00;100330.53;5075778;27;69298;-80
2023/11/13 08:40:43;;;;;;;;;0.00;0.00;;;;;18.53;100.00;100340.66;5076705;27;45484;-80
2023/11/13 08:43:10;;;;;;;;;0.00;0.00;;;;;18.47;100.00;100332.34;5077620;27;46612;-81
2023/11/13 08:45:37;;;;;;;;;0.00;0.00;;;;;18.55;100.00;100327.38;5076595;27;45369;-81
2023/11/13 08:48:03;;;;;;;;;0.00;0.00;;;;;18.63;100.00;100326.84;5077476;27;45430;-79
2023/11/13 08:50:29;;;;;;;;;0.00;0.00;;;;;18.74;100.00;100311.16;5077555;27;45324;-79
2023/11/13 08:52:56;;;;;;;;;0.00;0.00;;;;;18.75;100.00;100316.28;5077493;27;46251;-80
2023/11/13 08:55:23;;;;;;;;;0.00;0.00;;;;;18.82;100.00;100311.47;5077677;27;45431;-80
2023/11/13 08:57:48;;;;;;;;;0.00;0.00;;;;;18.86;100.00;100317.38;5077661;27;45708;-80
2023/11/13 09:00:20;;;;;;;;;0.00;0.00;;;;;18.75;100.00;100318.91;5076596;27;45473;-80
2023/11/13 09:02:59;;;;;;;;;0.00;0.00;;;;;18.89;100.00;100310.09;5075929;28;46733;-80
2023/11/13 09:05:26;;;;;;;;;0.00;0.00;;;;;18.85;100.00;100321.81;5076402;27;45486;-81
2023/11/13 09:08:02;;;;;;;;;0.00;0.00;;;;;19.00;100.00;100297.91;5076432;27;45343;-80
2023/11/13 09:10:29;;;;;;;;;0.00;0.00;;;;;19.09;100.00;100299.91;5076364;27;45287;-80
2023/11/13 09:12:58;;;;;;;;;0.00;0.00;;;;;19.07;100.00;100310.56;5077311;27;46901;-80
2023/11/13 09:15:25;;;;;;;;;0.00;0.00;;;;;19.10;100.00;100307.72;5077260;27;45514;-80
2023/11/13 09:17:51;;;;;;;;;0.00;0.00;;;;;18.99;100.00;100312.06;5075818;28;45456;-81
2023/11/13 09:20:19;;;;;;;;;0.00;0.00;;;;;19.16;100.00;100290.59;5075925;28;45552;-79
2023/11/13 09:22:48;;;;;;;;;0.00;0.00;;;;;19.13;100.00;100299.59;5075798;27;47073;-80
2023/11/13 09:25:14;;;;;;;;;0.00;0.00;;;;;19.09;100.00;100303.41;5076857;27;48189;-80
2023/11/13 09:27:41;;;;;;;;;0.00;0.00;;;;;19.14;100.00;100287.22;5076113;28;45383;-80
2023/11/13 09:30:10;;;;;;;;;0.00;0.00;;;;;19.10;100.00;100286.59;5075874;27;45522;-80
2023/11/13 09:32:44;;;;;;;;;0.00;0.00;;;;;19.18;100.00;100267.59;5075399;27;47431;-80
2023/11/13 09:35:24;;;;;;;;;0.00;0.00;;;;;19.17;100.00;100280.88;5075951;28;45397;-81
2023/11/13 09:37:53;;;;;;;;;0.00;0.00;;;;;19.19;100.00;100279.00;5077090;27;45408;-80
2023/11/13 09:40:23;;;;;;;;;0.00;0.00;;;;;19.04;100.00;100305.53;5077266;28;45428;-81
2023/11/13 09:42:51;;;;;;;;;0.00;0.00;;;;;19.11;100.00;100290.09;5076611;27;45450;-81
2023/11/13 09:45:18;;;;;;;;;0.00;0.00;;;;;19.14;100.00;100282.78;5076976;27;45372;-81
2023/11/13 09:47:46;;;;;;;;;0.00;0.00;;;;;19.21;100.00;100309.59;5076728;27;45337;-80
2023/11/13 09:50:16;;;;;;;;;0.00;0.00;;;;;19.26;100.00;100304.81;5076995;27;45350;-80
2023/11/13 09:52:50;;;;;;;;;0.00;0.00;;;;;19.23;100.00;100306.84;5076866;27;45521;-81
2023/11/13 09:55:20;;;;;;;;;0.00;0.00;;;;;19.19;100.00;100326.50;5075582;28;45433;-81
2023/11/13 09:57:52;;;;;;;;;0.00;0.00;;;;;19.14;100.00;100329.44;5076858;27;45439;-80
2023/11/13 10:00:23;;;;;;;;;0.00;0.00;;;;;19.17;100.00;100320.47;5076626;27;45493;-80
2023/11/13 10:02:50;;;;;;;;;0.00;0.00;;;;;19.15;100.00;100331.16;5074487;27;46269;-80
2023/11/13 10:05:17;;;;;;;;;0.00;0.00;;;;;19.15;100.00;100310.03;5075344;27;45464;-80
2023/11/13 10:07:47;;;;;;;;;0.00;0.00;;;;;19.14;100.00;100310.97;5075705;28;45538;-81
2023/11/13 10:10:19;;;;;;;;;0.00;0.00;;;;;19.19;100.00;100303.59;5075705;28;45549;-80
2023/11/13 10:12:45;;;;;;;;;0.00;0.00;;;;;19.18;100.00;100293.97;5076541;27;47184;-80
2023/11/13 10:15:13;;;;;;;;;0.00;0.00;;;;;19.12;100.00;100302.34;5075038;28;45386;-80
2023/11/13 10:17:48;;;;;;;;;0.00;0.00;;;;;19.19;100.00;100290.38;5076597;27;45262;-80
2023/11/13 10:20:17;;;;;;;;;0.00;0.00;;;;;19.27;100.00;100311.78;5076653;27;45467;-80
2023/11/13 10:22:44;;;;;;;;;0.00;0.00;;;;;19.22;100.00;100313.91;5076328;27;45506;-81
2023/11/13 10:25:11;;;;;;;;;0.00;0.00;;;;;19.22;100.00;100300.69;5073744;28;45278;-81
2023/11/13 10:27:44;;;;;;;;;0.00;0.00;;;;;19.32;100.00;100299.09;5056322;28;45405;-79
2023/11/13 10:30:10;;;;;;;;;0.00;0.00;;;;;19.41;100.00;100302.00;5055637;28;45592;-81
2023/11/13 10:32:36;;;;;;;;;0.00;0.00;;;;;19.41;100.00;100296.72;5054552;28;46340;-80
2023/11/13 10:35:09;;;;;;;;;0.00;0.00;;;;;19.51;100.00;100285.41;5054696;28;45513;-80
2023/11/13 10:37:36;;;;;;;;;0.00;0.00;;;;;19.55;100.00;100286.00;5055116;28;45393;-79
2023/11/13 10:40:01;;;;;;;;;0.00;0.00;;;;;19.57;100.00;100277.97;5056006;28;45359;-80
2023/11/13 10:42:27;;;;;;;;;0.00;0.00;;;;;19.49;100.00;100297.03;5055185;28;67393;-80
2023/11/13 10:44:55;;;;;;;;;0.00;0.00;;;;;19.49;100.00;100291.75;5055440;28;45294;-81
2023/11/13 10:47:32;;;;;;;;;0.00;0.00;;;;;19.52;100.00;100287.09;5054761;28;45369;-80
2023/11/13 10:49:58;;;;;;;;;0.00;0.00;;;;;19.57;100.00;100288.53;5037890;28;45531;-80
2023/11/13 10:52:27;;;;;;;;;0.00;0.00;;;;;19.57;100.00;100286.72;5054358;28;47258;-80
2023/11/13 10:54:58;;;;;;;;;0.00;0.00;;;;;19.58;100.00;100279.69;5055700;28;45355;-80
2023/11/13 10:57:25;;;;;;;;;0.00;0.00;;;;;19.53;100.00;100286.13;5054417;28;45848;-80
2023/11/13 10:59:53;;;;;;;;;0.00;0.00;;;;;19.50;100.00;100278.44;5054045;28;45499;-80
2023/11/13 11:02:25;;;;;;;;;0.00;0.00;;;;;19.44;100.00;100273.59;5055484;28;46118;-78
2023/11/13 11:04:53;;;;;;;;;0.00;0.00;;;;;19.27;100.00;100274.84;5055480;28;45466;-79
2023/11/13 11:07:21;;;;;;;;;0.00;0.00;;;;;18.94;100.00;100289.53;5055674;28;45330;-79
2023/11/13 11:09:47;;;;;;;;;0.00;0.00;;;;;19.00;100.00;100269.78;5054295;28;45382;-79
2023/11/13 11:12:13;;;;;;;;;0.00;0.00;;;;;18.85;100.00;100279.63;5055357;28;45976;-80